Kortenberg, Belgium
Current Conditions -  °F | °C
As of 9:20 AM on Friday 21 Nov 2014 (Local Time) from EBBR Reporting Station
Moderate Fog Moderate Fog  
Wind Chill: 34°   Ceiling: 100
Heat Index: 34°   Visibility: 0.09mi
Dew Point: 32°   Wind: 2mph
Humidity: 93%   Direction: NA
Pressure: 30.18"   Gusts: NA
Location:  50.89°N, 4.54°E
Report Text: EBBR 210820Z VRB02KT 0150 R25L/0375N R25R/0325N R01/0350N FG BKN001 BKN002 01/00 Q1022 NOSIG
Loading
Personal Weather Stations






























Interactive Weather Map New forecast layout! Learn more

10-Day Weather Forecast

Advertisements
Track Severe Weather on mobile